createdAt,value
2022-09-17T00:00:25.680Z,7.20
2022-09-17T00:01:01.935Z,7.60
2022-09-17T00:01:34.597Z,7.75
2022-09-17T00:02:07.413Z,7.40
2022-09-17T00:02:42.146Z,7.40
2022-09-17T00:03:15.117Z,7.50
2022-09-17T00:03:50.889Z,8.13
2022-09-17T00:04:24.623Z,7.55
2022-09-17T00:04:57.566Z,7.43
2022-09-17T00:05:30.183Z,7.50
2022-09-17T00:06:05.710Z,7.45
2022-09-17T00:06:38.278Z,6.68
2022-09-17T00:07:10.800Z,7.43
2022-09-17T00:07:44.365Z,7.30
2022-09-17T00:08:16.932Z,7.22
2022-09-17T00:08:51.314Z,7.70
2022-09-17T00:09:24.853Z,7.57
2022-09-17T00:09:57.372Z,7.22
2022-09-17T00:10:29.891Z,7.40
2022-09-17T00:11:08.779Z,7.22
2022-09-17T00:11:43.069Z,6.97
2022-09-17T00:12:15.686Z,6.85
2022-09-17T00:12:49.623Z,6.57
2022-09-17T00:13:22.263Z,6.85
2022-09-17T00:13:56.096Z,7.03
2022-09-17T00:14:29.746Z,6.95
2022-09-17T00:15:02.287Z,6.60
2022-09-17T00:15:41.325Z,7.03
2022-09-17T00:16:22.509Z,7.05
2022-09-17T00:16:57.695Z,6.95
2022-09-17T00:17:33.796Z,7.07
2022-09-17T00:18:07.497Z,7.20
2022-09-17T00:18:41.935Z,7.10
2022-09-17T00:19:17.213Z,6.75
2022-09-17T00:19:50.107Z,6.50
2022-09-17T00:20:22.704Z,7.05
2022-09-17T00:20:55.308Z,7.03
2022-09-17T00:21:29.519Z,7.00
2022-09-17T00:22:02.086Z,7.38
2022-09-17T00:22:34.679Z,6.90
2022-09-17T00:23:08.725Z,6.60
2022-09-17T00:23:41.232Z,7.05
2022-09-17T00:24:16.590Z,6.63
2022-09-17T00:24:50.269Z,7.13
2022-09-17T00:25:23.203Z,6.80
2022-09-17T00:25:55.861Z,6.97
2022-09-17T00:26:29.495Z,6.45
2022-09-17T00:27:03.146Z,6.80
2022-09-17T00:27:35.722Z,7.03
2022-09-17T00:28:08.418Z,7.05
2022-09-17T00:28:45.456Z,7.10
2022-09-17T00:29:18.309Z,6.43
2022-09-17T00:29:50.906Z,6.78
2022-09-17T00:30:24.455Z,6.85
2022-09-17T00:30:57.064Z,6.57
2022-09-17T00:31:30.776Z,6.85
2022-09-17T00:32:04.397Z,6.90
2022-09-17T00:32:36.875Z,6.82
2022-09-17T00:33:11.702Z,6.85
2022-09-17T00:33:45.372Z,6.78
2022-09-17T00:34:18.091Z,6.80
2022-09-17T00:34:52.293Z,6.53
2022-09-17T00:35:26.054Z,6.30
2022-09-17T00:35:59.720Z,6.72
2022-09-17T00:36:34.264Z,6.65
2022-09-17T00:37:07.817Z,6.60
2022-09-17T00:37:40.368Z,6.63
2022-09-17T00:38:13.067Z,6.68
2022-09-17T00:38:49.339Z,6.72
2022-09-17T00:39:23.435Z,6.63
2022-09-17T00:39:56.049Z,6.95
2022-09-17T00:40:29.845Z,7.25
2022-09-17T00:41:03.758Z,6.72
2022-09-17T00:41:38.491Z,7.50
2022-09-17T00:42:12.192Z,6.72
2022-09-17T00:42:45.483Z,6.78
2022-09-17T00:43:37.240Z,6.35
2022-09-17T00:44:42.721Z,6.60
2022-09-17T00:45:16.385Z,6.38
2022-09-17T00:45:49.524Z,6.53
2022-09-17T00:46:30.667Z,6.22
2022-09-17T00:47:04.646Z,6.45
2022-09-17T00:47:41.740Z,6.50
2022-09-17T00:48:15.310Z,6.18
2022-09-17T00:48:48.392Z,6.78
2022-09-17T00:49:23.995Z,7.45
2022-09-17T00:49:59.423Z,7.00
2022-09-17T00:50:33.456Z,6.15
2022-09-17T00:51:07.067Z,6.72
2022-09-17T00:51:42.234Z,6.53
2022-09-17T00:52:23.653Z,6.90
2022-09-17T00:52:58.543Z,6.85
2022-09-17T00:53:32.496Z,7.10
2022-09-17T00:54:07.168Z,6.82
2022-09-17T00:54:42.269Z,6.93
2022-09-17T00:55:19.918Z,6.50
2022-09-17T00:55:56.329Z,6.70
2022-09-17T00:56:30.793Z,6.88
2022-09-17T00:57:04.027Z,6.25
2022-09-17T00:57:37.984Z,6.47
2022-09-17T00:58:11.843Z,6.72
2022-09-17T00:58:44.736Z,6.72
2022-09-17T00:59:18.730Z,6.55
2022-09-17T00:59:52.314Z,6.70
2022-09-17T01:00:28.225Z,6.53
2022-09-17T01:01:02.102Z,7.05
2022-09-17T01:01:35.135Z,6.70
2022-09-17T01:02:08.226Z,6.35
2022-09-17T01:02:42.303Z,6.70
2022-09-17T01:03:15.120Z,6.97
2022-09-17T01:03:48.300Z,8.48
2022-09-17T01:04:22.567Z,6.75
2022-09-17T01:04:56.342Z,6.63
2022-09-17T01:05:32.598Z,6.47
2022-09-17T01:06:14.028Z,6.80
2022-09-17T01:06:51.411Z,6.45
2022-09-17T01:07:42.119Z,6.95
2022-09-17T01:08:23.124Z,5.90
2022-09-17T01:09:04.897Z,5.90
2022-09-17T01:09:43.161Z,6.20
2022-09-17T01:10:24.561Z,6.55
2022-09-17T01:11:16.051Z,5.85
2022-09-17T01:12:04.498Z,6.22
2022-09-17T01:12:49.542Z,5.97
2022-09-17T01:13:29.174Z,5.78
2022-09-17T01:14:08.535Z,5.82
2022-09-17T01:14:50.100Z,5.88
2022-09-17T01:15:26.815Z,6.00
2022-09-17T01:16:01.460Z,6.47
2022-09-17T01:16:38.273Z,5.72
2022-09-17T01:17:16.254Z,6.32
2022-09-17T01:17:58.782Z,5.80
2022-09-17T01:18:38.163Z,5.70
2022-09-17T01:19:23.300Z,6.13
2022-09-17T01:20:21.054Z,6.00
2022-09-17T01:21:17.552Z,5.75
2022-09-17T01:21:56.346Z,5.75
2022-09-17T01:22:34.254Z,5.70
2022-09-17T01:23:15.289Z,5.63
2022-09-17T01:23:57.827Z,5.57
2022-09-17T01:24:46.231Z,5.55
2022-09-17T01:25:25.183Z,5.70
2022-09-17T01:26:03.677Z,6.15
2022-09-17T01:26:51.327Z,5.88
2022-09-17T01:27:47.137Z,5.72
2022-09-17T01:28:34.022Z,5.85
2022-09-17T01:29:13.946Z,5.60
2022-09-17T01:29:57.728Z,5.78
2022-09-17T01:30:35.139Z,5.55
2022-09-17T01:31:22.858Z,5.82
2022-09-17T01:32:00.220Z,5.65
2022-09-17T01:32:37.991Z,5.80
2022-09-17T01:33:14.998Z,6.10
2022-09-17T01:33:53.989Z,5.53
2022-09-17T01:34:34.689Z,5.88
2022-09-17T01:35:15.933Z,5.50
2022-09-17T01:35:56.663Z,5.72
2022-09-17T01:36:45.570Z,5.55
2022-09-17T01:37:30.080Z,5.70
2022-09-17T01:38:10.157Z,5.55
2022-09-17T01:38:49.515Z,6.15
2022-09-17T01:39:32.967Z,6.03
2022-09-17T01:40:12.791Z,5.70
2022-09-17T01:40:52.753Z,5.53
2022-09-17T01:41:34.506Z,5.95
2022-09-17T01:42:15.319Z,5.45
2022-09-17T01:42:54.326Z,5.72
2022-09-17T01:43:34.409Z,6.10
2022-09-17T01:44:12.130Z,5.97
2022-09-17T01:44:52.452Z,5.90
2022-09-17T01:45:30.338Z,5.38
2022-09-17T01:46:13.954Z,5.97
2022-09-17T01:46:51.784Z,5.78
2022-09-17T01:47:29.225Z,5.78
2022-09-17T01:48:07.907Z,5.32
2022-09-17T01:48:44.519Z,5.50
2022-09-17T01:49:21.955Z,5.97
2022-09-17T01:50:00.528Z,5.82
2022-09-17T01:50:40.952Z,5.65
2022-09-17T01:51:18.398Z,5.72
2022-09-17T01:51:51.964Z,5.10
2022-09-17T01:52:28.031Z,5.57
2022-09-17T01:53:03.194Z,5.80
2022-09-17T01:53:41.456Z,5.97
2022-09-17T01:54:20.419Z,5.57
2022-09-17T01:54:58.759Z,5.57
2022-09-17T01:55:35.933Z,5.82
2022-09-17T01:56:12.344Z,5.35
2022-09-17T01:56:51.779Z,5.80
2022-09-17T01:57:29.596Z,5.35
2022-09-17T01:58:08.519Z,5.53
2022-09-17T01:58:46.277Z,5.65
2022-09-17T01:59:24.045Z,5.22
2022-09-17T02:00:02.462Z,5.93
2022-09-17T02:00:50.975Z,5.45
2022-09-17T02:01:26.519Z,5.60
2022-09-17T02:02:07.441Z,5.82
2022-09-17T02:02:43.541Z,5.88
2022-09-17T02:03:20.592Z,5.00
2022-09-17T02:04:00.455Z,5.55
2022-09-17T02:04:37.655Z,5.65
2022-09-17T02:05:14.779Z,5.82
2022-09-17T02:05:55.649Z,5.45
2022-09-17T02:06:34.841Z,4.93
2022-09-17T02:07:14.468Z,4.90
2022-09-17T02:07:53.714Z,5.03
2022-09-17T02:08:31.157Z,4.80
2022-09-17T02:09:10.747Z,4.95
2022-09-17T02:09:51.142Z,5.00
2022-09-17T02:10:29.720Z,4.57
2022-09-17T02:11:15.336Z,4.78
2022-09-17T02:11:52.645Z,4.75
2022-09-17T02:12:31.678Z,4.72
2022-09-17T02:13:09.511Z,4.80
2022-09-17T02:13:47.501Z,5.03
2022-09-17T02:14:25.129Z,5.40
2022-09-17T02:15:01.797Z,4.97
2022-09-17T02:15:40.138Z,4.97
2022-09-17T02:16:17.153Z,5.63
2022-09-17T02:16:56.699Z,4.82
2022-09-17T02:17:34.631Z,5.10
2022-09-17T02:18:12.533Z,5.13
2022-09-17T02:18:50.870Z,5.07
2022-09-17T02:19:27.624Z,5.20
2022-09-17T02:20:02.324Z,4.95
2022-09-17T02:20:41.150Z,4.65
2022-09-17T02:21:19.997Z,5.30
2022-09-17T02:22:04.181Z,4.78
2022-09-17T02:22:42.412Z,4.90
2022-09-17T02:23:19.125Z,4.75
2022-09-17T02:23:59.412Z,5.10
2022-09-17T02:25:16.119Z,4.88
2022-09-17T02:25:53.709Z,4.57
2022-09-17T02:26:28.101Z,4.40
2022-09-17T02:27:06.849Z,4.80
2022-09-17T02:27:48.393Z,4.90
2022-09-17T02:28:27.683Z,5.13
2022-09-17T02:29:07.859Z,5.40
2022-09-17T02:30:17.068Z,4.90
2022-09-17T02:30:50.649Z,4.93
2022-09-17T02:31:24.422Z,5.53
2022-09-17T02:31:58.571Z,5.10
2022-09-17T02:32:31.103Z,4.80
2022-09-17T02:33:08.746Z,5.03
2022-09-17T02:33:44.547Z,4.78
2022-09-17T02:34:18.130Z,4.57
2022-09-17T02:34:51.798Z,4.78
2022-09-17T02:35:24.469Z,4.60
2022-09-17T02:35:57.143Z,4.78
2022-09-17T02:36:32.595Z,4.63
2022-09-17T02:37:05.861Z,4.78
2022-09-17T02:37:38.417Z,4.72
2022-09-17T02:38:12.088Z,4.60
2022-09-17T02:38:45.696Z,5.20
2022-09-17T02:39:18.306Z,4.47
2022-09-17T02:39:52.076Z,4.28
2022-09-17T02:40:28.243Z,4.70
2022-09-17T02:41:12.384Z,4.43
2022-09-17T02:41:53.362Z,4.80
2022-09-17T02:42:36.003Z,4.80
2022-09-17T02:43:20.943Z,4.72
2022-09-17T02:44:03.941Z,4.43
2022-09-17T02:44:42.744Z,4.57
2022-09-17T02:45:28.605Z,4.80
2022-09-17T02:46:14.692Z,4.40
2022-09-17T02:47:06.230Z,4.30
2022-09-17T02:48:11.038Z,4.10
2022-09-17T02:49:02.565Z,4.30
2022-09-17T02:49:50.523Z,4.05
2022-09-17T02:50:33.831Z,4.45
2022-09-17T02:51:21.691Z,4.57
2022-09-17T02:52:06.300Z,4.22
2022-09-17T02:52:49.230Z,4.43
2022-09-17T02:53:35.630Z,4.72
2022-09-17T02:54:18.181Z,4.78
2022-09-17T02:55:01.342Z,4.40
2022-09-17T02:55:42.178Z,4.28
2022-09-17T02:56:20.749Z,4.50
2022-09-17T02:57:05.454Z,4.30
2022-09-17T02:57:42.642Z,4.68
2022-09-17T02:58:23.088Z,4.72
2022-09-17T02:59:03.305Z,4.90
2022-09-17T02:59:42.620Z,4.05
2022-09-17T03:00:19.393Z,4.57
2022-09-17T03:01:04.716Z,4.43
2022-09-17T03:01:43.999Z,4.47
2022-09-17T03:02:23.045Z,5.00
2022-09-17T03:03:01.150Z,5.70
2022-09-17T03:03:38.090Z,4.40
2022-09-17T03:04:16.211Z,4.72
2022-09-17T03:04:50.438Z,4.45
2022-09-17T03:05:25.106Z,4.30
2022-09-17T03:05:59.278Z,4.18
2022-09-17T03:06:32.479Z,5.05
2022-09-17T03:07:08.091Z,5.00
2022-09-17T03:07:42.154Z,4.63
2022-09-17T03:08:18.563Z,5.80
2022-09-17T03:08:52.305Z,4.35
2022-09-17T03:09:25.880Z,4.50
2022-09-17T03:09:58.386Z,4.20
2022-09-17T03:10:33.731Z,4.47
2022-09-17T03:11:09.242Z,4.60
2022-09-17T03:11:42.234Z,4.57
2022-09-17T03:12:16.183Z,4.18
2022-09-17T03:12:48.987Z,4.30
2022-09-17T03:13:21.532Z,4.70
2022-09-17T03:13:55.362Z,4.15
2022-09-17T03:14:27.871Z,4.60
2022-09-17T03:15:00.993Z,4.30
2022-09-17T03:15:34.721Z,4.63
2022-09-17T03:16:08.118Z,4.70
2022-09-17T03:16:40.624Z,4.60
2022-09-17T03:17:15.007Z,4.70
2022-09-17T03:17:53.127Z,4.57
2022-09-17T03:18:25.995Z,4.45
2022-09-17T03:18:59.559Z,4.22
2022-09-17T03:19:32.158Z,4.63
2022-09-17T03:20:05.223Z,4.60
2022-09-17T03:20:38.805Z,4.30
2022-09-17T03:21:12.590Z,4.68
2022-09-17T03:21:45.274Z,4.63
2022-09-17T03:22:18.866Z,4.22
2022-09-17T03:22:52.901Z,4.60
2022-09-17T03:23:26.134Z,4.18
2022-09-17T03:24:00.424Z,4.60
2022-09-17T03:24:32.960Z,4.50
2022-09-17T03:25:07.359Z,4.60
2022-09-17T03:25:39.883Z,4.63
2022-09-17T03:26:12.480Z,4.28
2022-09-17T03:26:44.994Z,4.40
2022-09-17T03:27:18.548Z,4.57
2022-09-17T03:27:52.482Z,4.10
2022-09-17T03:28:26.598Z,4.05
2022-09-17T03:29:00.248Z,4.70
2022-09-17T03:29:32.879Z,4.18
2022-09-17T03:30:07.530Z,4.28
2022-09-17T03:30:40.166Z,4.20
2022-09-17T03:31:12.720Z,4.78
2022-09-17T03:31:46.449Z,4.30
2022-09-17T03:32:22.375Z,4.65
2022-09-17T03:32:56.702Z,4.53
2022-09-17T03:33:30.317Z,4.78
2022-09-17T03:34:02.885Z,4.40
2022-09-17T03:34:35.439Z,4.57
2022-09-17T03:35:09.658Z,4.95
2022-09-17T03:35:43.521Z,4.97
2022-09-17T03:36:17.106Z,5.30
2022-09-17T03:36:49.688Z,5.60
2022-09-17T03:37:24.766Z,5.32
2022-09-17T03:37:59.039Z,5.65
2022-09-17T03:38:34.254Z,4.70
2022-09-17T03:39:07.128Z,4.75
2022-09-17T03:39:40.757Z,5.00
2022-09-17T03:40:13.394Z,5.50
2022-09-17T03:40:57.563Z,5.93
2022-09-17T03:41:30.011Z,4.82
2022-09-17T03:42:02.626Z,6.80
2022-09-17T03:42:36.184Z,5.82
2022-09-17T03:43:08.958Z,5.05
2022-09-17T03:43:41.491Z,4.65
2022-09-17T03:44:15.525Z,4.68
2022-09-17T03:44:48.164Z,5.68
2022-09-17T03:45:20.685Z,5.22
2022-09-17T03:45:54.361Z,5.53
2022-09-17T03:46:26.931Z,4.78
2022-09-17T03:46:59.481Z,4.53
2022-09-17T03:47:32.149Z,4.50
2022-09-17T03:48:07.200Z,4.68
2022-09-17T03:48:39.840Z,4.90
2022-09-17T03:49:12.578Z,4.35
2022-09-17T03:49:46.153Z,4.60
2022-09-17T03:50:19.071Z,5.00
2022-09-17T03:50:51.655Z,4.55
2022-09-17T03:51:24.222Z,4.43
2022-09-17T03:51:58.077Z,4.90
2022-09-17T03:52:30.643Z,4.45
2022-09-17T03:53:03.326Z,4.85
2022-09-17T03:53:36.947Z,4.40
2022-09-17T03:54:09.633Z,4.53
2022-09-17T03:54:42.170Z,4.63
2022-09-17T03:55:16.236Z,4.22
2022-09-17T03:55:48.770Z,3.88
2022-09-17T03:56:21.330Z,4.32
2022-09-17T03:56:54.918Z,5.07
2022-09-17T03:57:27.657Z,5.20
2022-09-17T03:58:00.215Z,4.47
2022-09-17T03:58:33.234Z,5.20
2022-09-17T03:59:06.829Z,4.30
2022-09-17T03:59:39.978Z,4.70
2022-09-17T04:00:17.594Z,8.95
2022-09-17T04:00:59.903Z,8.98
2022-09-17T04:01:32.651Z,4.97
2022-09-17T04:02:05.552Z,5.07
2022-09-17T04:02:39.244Z,4.43
2022-09-17T04:03:13.502Z,4.47
2022-09-17T04:03:47.032Z,4.50
2022-09-17T04:04:19.665Z,4.90
2022-09-17T04:04:53.161Z,4.70
2022-09-17T04:05:26.801Z,4.55
2022-09-17T04:05:59.407Z,5.00
2022-09-17T04:06:33.070Z,4.65
2022-09-17T04:07:05.765Z,4.43
2022-09-17T04:07:39.792Z,4.72
2022-09-17T04:08:13.296Z,4.78
2022-09-17T04:08:45.969Z,4.55
2022-09-17T04:09:18.539Z,4.95
2022-09-17T04:09:52.068Z,4.30
2022-09-17T04:10:24.653Z,5.05
2022-09-17T04:10:57.205Z,5.10
2022-09-17T04:11:30.766Z,4.68
2022-09-17T04:12:04.024Z,5.15
2022-09-17T04:12:36.558Z,4.93
2022-09-17T04:13:10.977Z,5.00
2022-09-17T04:13:44.001Z,4.97
2022-09-17T04:14:16.622Z,4.57
2022-09-17T04:14:50.277Z,4.82
2022-09-17T04:15:22.877Z,4.88
2022-09-17T04:15:55.469Z,4.75
2022-09-17T04:16:29.088Z,4.95
2022-09-17T04:17:01.715Z,4.80
2022-09-17T04:17:34.445Z,4.75
2022-09-17T04:18:08.143Z,5.10
2022-09-17T04:18:42.142Z,4.72
2022-09-17T04:19:14.721Z,4.22
2022-09-17T04:19:48.897Z,4.40
2022-09-17T04:20:21.536Z,4.68
2022-09-17T04:20:54.075Z,4.53
2022-09-17T04:21:27.688Z,5.05
2022-09-17T04:22:00.502Z,4.88
2022-09-17T04:22:33.126Z,4.75
2022-09-17T04:23:07.515Z,4.30
2022-09-17T04:23:40.134Z,4.57
2022-09-17T04:24:13.746Z,4.97
2022-09-17T04:24:46.308Z,5.05
2022-09-17T04:25:19.235Z,4.18
2022-09-17T04:25:52.843Z,4.35
2022-09-17T04:26:25.576Z,4.78
2022-09-17T04:26:58.075Z,4.70
2022-09-17T04:27:30.574Z,5.00
2022-09-17T04:28:04.366Z,4.10
2022-09-17T04:28:36.912Z,3.85
2022-09-17T04:29:10.231Z,4.10
2022-09-17T04:29:43.884Z,3.92
2022-09-17T04:30:16.899Z,4.10
2022-09-17T04:30:49.774Z,4.03
2022-09-17T04:31:25.125Z,3.85
2022-09-17T04:31:57.715Z,3.53
2022-09-17T04:32:30.442Z,3.85
2022-09-17T04:33:04.087Z,3.97
2022-09-17T04:33:37.627Z,4.05
2022-09-17T04:34:11.565Z,3.55
2022-09-17T04:34:45.164Z,3.70
2022-09-17T04:35:17.918Z,3.70
2022-09-17T04:35:50.463Z,3.72
2022-09-17T04:36:24.039Z,3.67
2022-09-17T04:36:56.557Z,3.72
2022-09-17T04:37:29.206Z,3.90
2022-09-17T04:38:01.821Z,4.25
2022-09-17T04:38:35.525Z,3.60
2022-09-17T04:39:08.997Z,3.80
2022-09-17T04:39:41.594Z,3.72
2022-09-17T04:40:15.134Z,3.70
2022-09-17T04:40:48.269Z,4.07
2022-09-17T04:41:20.793Z,4.00
2022-09-17T04:41:54.400Z,3.78
2022-09-17T04:42:26.964Z,3.85
2022-09-17T04:43:03.083Z,3.90
2022-09-17T04:43:37.144Z,3.95
2022-09-17T04:44:09.707Z,4.05
2022-09-17T04:44:42.335Z,4.13
2022-09-17T04:45:16.098Z,4.00
2022-09-17T04:45:49.423Z,3.33
2022-09-17T04:46:22.072Z,3.83
2022-09-17T04:46:55.702Z,6.68
2022-09-17T04:47:28.287Z,5.32
2022-09-17T04:48:01.958Z,7.40
2022-09-17T04:48:35.807Z,3.80
2022-09-17T04:49:09.011Z,3.90
2022-09-17T04:49:42.930Z,3.33
2022-09-17T04:50:15.651Z,3.10
2022-09-17T04:50:49.555Z,3.47
2022-09-17T04:51:22.088Z,3.40
2022-09-17T04:51:54.560Z,3.50
2022-09-17T04:52:30.971Z,3.50
2022-09-17T04:53:04.117Z,3.13
2022-09-17T04:53:37.137Z,3.50
2022-09-17T04:54:10.759Z,3.70
2022-09-17T04:54:43.331Z,3.22
2022-09-17T04:55:16.607Z,4.05
2022-09-17T04:55:53.169Z,3.63
2022-09-17T04:56:25.718Z,3.40
2022-09-17T04:56:58.285Z,3.30
2022-09-17T04:57:31.865Z,3.40
2022-09-17T04:58:04.591Z,3.58
2022-09-17T04:58:37.105Z,3.90
2022-09-17T04:59:10.741Z,3.53
2022-09-17T04:59:43.384Z,3.88
2022-09-17T05:00:22.146Z,4.40
2022-09-17T05:00:58.790Z,3.63
2022-09-17T05:01:31.450Z,3.75
2022-09-17T05:02:04.166Z,3.60
2022-09-17T05:02:38.034Z,3.28
2022-09-17T05:03:10.635Z,3.83
2022-09-17T05:03:43.267Z,3.78
2022-09-17T05:04:17.272Z,3.50
2022-09-17T05:04:51.295Z,4.25
2022-09-17T05:05:24.464Z,3.55
2022-09-17T05:05:58.008Z,3.35
2022-09-17T05:06:30.600Z,3.35
2022-09-17T05:07:03.318Z,3.50
2022-09-17T05:07:38.174Z,4.32
2022-09-17T05:08:11.950Z,3.50
2022-09-17T05:08:44.497Z,3.60
2022-09-17T05:09:18.988Z,3.25
2022-09-17T05:09:51.598Z,3.55
2022-09-17T05:10:25.596Z,3.70
2022-09-17T05:10:58.174Z,4.15
2022-09-17T05:11:30.733Z,4.90
2022-09-17T05:12:03.602Z,4.55
2022-09-17T05:12:37.304Z,4.22
2022-09-17T05:13:10.127Z,3.40
2022-09-17T05:13:42.634Z,3.15
2022-09-17T05:14:16.414Z,3.65
2022-09-17T05:14:48.998Z,3.67
2022-09-17T05:15:22.267Z,3.50
2022-09-17T05:15:56.864Z,3.35
2022-09-17T05:16:29.645Z,3.33
2022-09-17T05:17:02.285Z,3.17
2022-09-17T05:17:35.864Z,3.30
2022-09-17T05:18:08.429Z,3.33
2022-09-17T05:18:42.063Z,3.28
2022-09-17T05:19:14.586Z,3.10
2022-09-17T05:19:47.249Z,3.30
2022-09-17T05:20:22.503Z,3.33
2022-09-17T05:20:55.020Z,4.00
2022-09-17T05:21:27.548Z,3.72
2022-09-17T05:22:01.108Z,3.80
2022-09-17T05:22:33.710Z,3.13
2022-09-17T05:23:07.484Z,3.33
2022-09-17T05:23:40.053Z,3.65
2022-09-17T05:24:12.703Z,3.53
2022-09-17T05:24:46.229Z,3.40
2022-09-17T05:25:21.048Z,3.30
2022-09-17T05:25:54.686Z,4.07
2022-09-17T05:26:27.363Z,4.70
2022-09-17T05:26:59.863Z,4.40
2022-09-17T05:27:33.438Z,4.90
2022-09-17T05:28:05.927Z,3.90
2022-09-17T05:28:39.556Z,4.13
2022-09-17T05:29:12.127Z,4.25
2022-09-17T05:29:45.422Z,3.85
2022-09-17T05:30:19.198Z,3.97
2022-09-17T05:30:51.869Z,4.68
2022-09-17T05:31:24.722Z,4.07
2022-09-17T05:31:58.387Z,3.13
2022-09-17T05:32:31.289Z,3.28
2022-09-17T05:33:05.860Z,3.40
2022-09-17T05:33:39.392Z,3.58
2022-09-17T05:34:12.060Z,4.30
2022-09-17T05:34:44.598Z,3.28
2022-09-17T05:35:18.318Z,3.22
2022-09-17T05:35:52.380Z,3.10
2022-09-17T05:36:26.238Z,3.50
2022-09-17T05:36:58.937Z,3.20
2022-09-17T05:37:31.542Z,3.05
2022-09-17T05:38:07.669Z,3.83
2022-09-17T05:38:40.190Z,3.15
2022-09-17T05:39:12.894Z,3.13
2022-09-17T05:39:46.526Z,3.42
2022-09-17T05:40:19.181Z,3.70
2022-09-17T05:40:52.795Z,3.20
2022-09-17T05:41:25.394Z,3.95
2022-09-17T05:41:58.087Z,3.45
2022-09-17T05:42:31.629Z,3.05
2022-09-17T05:43:05.790Z,3.75
2022-09-17T05:43:39.380Z,4.00
2022-09-17T05:44:16.051Z,4.53
2022-09-17T05:44:50.525Z,4.00
2022-09-17T05:45:24.190Z,3.30
2022-09-17T05:45:57.409Z,3.28
2022-09-17T05:46:30.054Z,3.65
2022-09-17T05:47:03.654Z,3.13
2022-09-17T05:47:36.158Z,3.50
2022-09-17T05:48:12.697Z,3.30
2022-09-17T05:48:46.377Z,3.40
2022-09-17T05:49:18.955Z,3.47
2022-09-17T05:49:51.504Z,3.40
2022-09-17T05:50:25.433Z,3.47
2022-09-17T05:50:59.624Z,3.60
2022-09-17T05:51:33.179Z,3.75
2022-09-17T05:52:05.736Z,3.42
2022-09-17T05:52:38.235Z,3.58
2022-09-17T05:53:13.884Z,3.58
2022-09-17T05:53:46.500Z,3.67
2022-09-17T05:54:19.260Z,3.85
2022-09-17T05:54:52.799Z,3.83
2022-09-17T05:55:25.446Z,3.58
2022-09-17T05:55:58.184Z,3.65
2022-09-17T05:56:31.948Z,4.00
2022-09-17T05:57:05.000Z,3.58
2022-09-17T05:57:37.579Z,3.83
2022-09-17T05:58:12.805Z,3.72
2022-09-17T05:58:45.331Z,3.65
2022-09-17T05:59:17.920Z,4.03
2022-09-17T05:59:51.617Z,3.78
2022-09-17T06:00:29.713Z,4.38
2022-09-17T06:01:06.242Z,3.90
2022-09-17T06:01:38.903Z,3.88
2022-09-17T06:02:14.203Z,4.40
2022-09-17T06:02:47.991Z,3.65
2022-09-17T06:03:22.933Z,3.80
2022-09-17T06:03:55.632Z,3.65
2022-09-17T06:04:30.559Z,3.78
2022-09-17T06:05:09.101Z,4.57
2022-09-17T06:05:41.990Z,3.67
2022-09-17T06:06:18.071Z,3.63
2022-09-17T06:06:50.694Z,3.67
2022-09-17T06:07:23.828Z,3.38
2022-09-17T06:07:57.388Z,4.07
2022-09-17T06:08:29.990Z,3.80
2022-09-17T06:09:02.615Z,4.13
2022-09-17T06:09:37.756Z,3.53
2022-09-17T06:10:10.379Z,4.15
2022-09-17T06:10:42.998Z,4.28
2022-09-17T06:11:16.658Z,4.25
2022-09-17T06:11:49.324Z,4.47
2022-09-17T06:12:22.294Z,4.60
2022-09-17T06:12:59.475Z,4.95
2022-09-17T06:13:32.843Z,23.20
2022-09-17T06:14:05.479Z,5.03
2022-09-17T06:14:39.060Z,4.03
2022-09-17T06:15:14.742Z,4.72
2022-09-17T06:15:51.172Z,5.25
2022-09-17T06:16:26.183Z,5.53
2022-09-17T06:16:58.792Z,4.38
2022-09-17T06:17:34.342Z,3.92
2022-09-17T06:18:08.063Z,3.85
2022-09-17T06:18:40.632Z,6.80
2022-09-17T06:19:13.245Z,4.07
2022-09-17T06:19:46.789Z,3.88
2022-09-17T06:20:19.990Z,4.40
2022-09-17T06:20:56.140Z,4.10
2022-09-17T06:21:31.034Z,4.13
2022-09-17T06:22:05.523Z,4.40
2022-09-17T06:22:39.112Z,4.28
2022-09-17T06:23:15.797Z,4.35
2022-09-17T06:23:49.897Z,4.20
2022-09-17T06:24:22.645Z,4.28
2022-09-17T06:24:55.252Z,3.80
2022-09-17T06:25:29.571Z,3.42
2022-09-17T06:26:03.355Z,4.30
2022-09-17T06:26:35.893Z,4.18
2022-09-17T06:27:09.574Z,4.80
2022-09-17T06:27:42.338Z,3.63
2022-09-17T06:28:15.114Z,4.30
2022-09-17T06:28:48.927Z,4.68
2022-09-17T06:29:21.919Z,4.20
2022-09-17T06:29:54.761Z,4.10
2022-09-17T06:30:28.553Z,3.75
2022-09-17T06:31:01.555Z,4.25
2022-09-17T06:31:35.585Z,4.43
2022-09-17T06:32:11.072Z,3.95
2022-09-17T06:32:43.870Z,4.35
2022-09-17T06:33:17.689Z,3.97
2022-09-17T06:33:51.303Z,4.45
2022-09-17T06:34:24.075Z,3.65
2022-09-17T06:34:57.472Z,3.97
2022-09-17T06:35:31.292Z,3.75
2022-09-17T06:36:07.534Z,3.88
2022-09-17T06:36:44.848Z,4.25
2022-09-17T06:37:17.927Z,4.32
2022-09-17T06:37:50.719Z,4.72
2022-09-17T06:38:24.568Z,4.55
2022-09-17T06:38:57.296Z,4.50
2022-09-17T06:39:30.024Z,4.15
2022-09-17T06:40:04.812Z,3.80
2022-09-17T06:40:37.757Z,4.35
2022-09-17T06:41:10.622Z,4.50
2022-09-17T06:41:44.499Z,4.25
2022-09-17T06:42:18.584Z,3.50
2022-09-17T06:42:51.644Z,4.00
2022-09-17T06:43:24.660Z,3.35
2022-09-17T06:43:58.886Z,3.45
2022-09-17T06:44:31.720Z,3.55
2022-09-17T06:45:09.259Z,3.70
2022-09-17T06:45:44.019Z,3.53
2022-09-17T06:46:16.925Z,3.42
2022-09-17T06:46:51.156Z,3.97
2022-09-17T06:47:26.593Z,3.78
2022-09-17T06:47:59.354Z,4.25
2022-09-17T06:48:33.117Z,3.20
2022-09-17T06:49:06.063Z,3.88
2022-09-17T06:49:38.875Z,3.95
2022-09-17T06:50:12.681Z,3.70
2022-09-17T06:50:45.488Z,4.20
2022-09-17T06:51:18.285Z,4.05
2022-09-17T06:51:53.535Z,3.70
2022-09-17T06:52:26.454Z,3.72
2022-09-17T06:52:59.178Z,3.35
2022-09-17T06:53:33.288Z,3.30
2022-09-17T06:54:06.191Z,3.35
2022-09-17T06:54:39.203Z,3.33
2022-09-17T06:55:12.963Z,3.58
2022-09-17T06:55:45.720Z,3.30
2022-09-17T06:56:19.579Z,3.40
2022-09-17T06:56:52.319Z,3.35
2022-09-17T06:57:25.301Z,3.72
2022-09-17T06:58:01.387Z,3.70
2022-09-17T06:58:34.697Z,3.20
2022-09-17T06:59:07.434Z,2.97
2022-09-17T06:59:43.066Z,3.03
2022-09-17T07:00:24.645Z,3.03
2022-09-17T07:01:01.007Z,3.20
2022-09-17T07:01:33.958Z,3.30
2022-09-17T07:02:08.287Z,2.95
2022-09-17T07:02:41.338Z,2.97
2022-09-17T07:03:14.316Z,3.15
2022-09-17T07:03:49.810Z,2.50
2022-09-17T07:04:22.604Z,2.83
2022-09-17T07:04:55.378Z,2.80
2022-09-17T07:05:30.047Z,2.88
2022-09-17T07:06:03.239Z,2.90
2022-09-17T07:06:36.018Z,3.35
2022-09-17T07:07:11.233Z,2.83
2022-09-17T07:07:44.008Z,2.42
2022-09-17T07:08:16.826Z,2.40
2022-09-17T07:08:53.186Z,2.80
2022-09-17T07:09:26.242Z,2.58
2022-09-17T07:10:00.190Z,2.55
2022-09-17T07:10:34.271Z,2.70
2022-09-17T07:11:08.210Z,2.60
2022-09-17T07:11:40.998Z,2.90
2022-09-17T07:12:14.882Z,2.92
2022-09-17T07:12:49.922Z,4.53
2022-09-17T07:13:22.947Z,2.75
2022-09-17T07:13:57.064Z,2.60
2022-09-17T07:14:30.201Z,2.65
2022-09-17T07:15:02.957Z,2.55
2022-09-17T07:15:36.823Z,2.30
2022-09-17T07:16:11.071Z,2.70
2022-09-17T07:16:44.062Z,2.70
2022-09-17T07:17:17.989Z,2.17
2022-09-17T07:17:51.252Z,2.55
2022-09-17T07:18:24.012Z,2.90
2022-09-17T07:18:57.939Z,2.70
2022-09-17T07:19:30.817Z,2.35
2022-09-17T07:20:03.592Z,3.08
2022-09-17T07:20:36.356Z,2.42
2022-09-17T07:21:10.242Z,2.85
2022-09-17T07:21:42.981Z,2.05
2022-09-17T07:22:17.216Z,2.65
2022-09-17T07:22:57.673Z,2.38
2022-09-17T07:23:31.382Z,2.30
2022-09-17T07:24:05.357Z,2.50
2022-09-17T07:24:38.257Z,4.65
2022-09-17T07:25:11.458Z,3.13
2022-09-17T07:25:44.258Z,2.80
2022-09-17T07:26:18.162Z,3.10
2022-09-17T07:26:51.073Z,3.13
2022-09-17T07:27:24.159Z,3.40
2022-09-17T07:27:57.986Z,14.55
2022-09-17T07:28:30.929Z,5.20
2022-09-17T07:29:03.796Z,2.95
2022-09-17T07:29:37.584Z,2.42
2022-09-17T07:30:11.278Z,2.42
2022-09-17T07:30:44.014Z,2.35
2022-09-17T07:31:17.886Z,2.55
2022-09-17T07:31:50.734Z,2.78
2022-09-17T07:32:24.116Z,2.90
2022-09-17T07:32:57.839Z,2.95
2022-09-17T07:33:30.682Z,3.00
2022-09-17T07:34:03.722Z,2.80
2022-09-17T07:34:37.861Z,2.80
2022-09-17T07:35:10.687Z,2.40
2022-09-17T07:35:43.465Z,2.75
2022-09-17T07:36:19.002Z,2.55
2022-09-17T07:36:51.839Z,2.75
2022-09-17T07:37:26.137Z,2.67
2022-09-17T07:37:59.873Z,3.65
2022-09-17T07:38:34.027Z,2.50
2022-09-17T07:39:08.001Z,2.20
2022-09-17T07:39:40.900Z,2.33
2022-09-17T07:40:13.686Z,2.40
2022-09-17T07:40:53.471Z,3.22
2022-09-17T07:41:27.362Z,2.83
2022-09-17T07:42:00.147Z,2.40
2022-09-17T07:42:33.172Z,2.65
2022-09-17T07:43:07.233Z,2.13
2022-09-17T07:43:40.154Z,2.33
2022-09-17T07:44:13.929Z,1.92
2022-09-17T07:44:47.122Z,1.90
2022-09-17T07:45:19.968Z,3.10
2022-09-17T07:45:54.145Z,2.40
2022-09-17T07:46:26.961Z,1.60
2022-09-17T07:47:00.935Z,2.05
2022-09-17T07:47:33.808Z,1.73
2022-09-17T07:48:06.695Z,2.35
2022-09-17T07:48:40.673Z,1.80
2022-09-17T07:49:13.509Z,2.58